createdAt,value
2022-08-25T00:01:46.170Z,17.47
2022-08-25T00:04:15.446Z,17.45
2022-08-25T00:06:43.573Z,17.41
2022-08-25T00:09:12.831Z,17.46
2022-08-25T00:11:40.939Z,17.46
2022-08-25T00:14:13.611Z,17.43
2022-08-25T00:16:40.649Z,17.41
2022-08-25T00:19:12.617Z,17.41
2022-08-25T00:21:41.146Z,17.41
2022-08-25T00:24:09.545Z,17.37
2022-08-25T00:26:40.024Z,17.34
2022-08-25T00:29:07.318Z,17.33
2022-08-25T00:31:37.788Z,17.28
2022-08-25T00:34:11.243Z,17.25
2022-08-25T00:36:39.111Z,17.22
2022-08-25T00:39:08.962Z,17.25
2022-08-25T00:41:36.976Z,17.20
2022-08-25T00:44:06.942Z,17.17
2022-08-25T00:46:49.336Z,17.15
2022-08-25T00:49:25.222Z,17.07
2022-08-25T00:51:55.304Z,16.99
2022-08-25T00:54:25.766Z,16.95
2022-08-25T00:56:53.231Z,16.89
2022-08-25T00:59:22.837Z,16.86
2022-08-25T01:01:50.930Z,16.84
2022-08-25T01:04:18.412Z,16.84
2022-08-25T01:06:47.690Z,16.80
2022-08-25T01:09:15.437Z,16.75
2022-08-25T01:11:44.455Z,16.71
2022-08-25T01:14:14.858Z,16.76
2022-08-25T01:16:43.761Z,16.77
2022-08-25T01:19:15.513Z,16.77
2022-08-25T01:21:46.554Z,16.80
2022-08-25T01:24:24.449Z,16.75
2022-08-25T01:26:51.785Z,16.72
2022-08-25T01:29:21.263Z,16.72
2022-08-25T01:31:56.675Z,16.72
2022-08-25T01:34:26.156Z,16.69
2022-08-25T01:36:53.634Z,16.66
2022-08-25T01:39:20.554Z,16.66
2022-08-25T01:42:11.618Z,16.66
2022-08-25T01:44:44.153Z,16.66
2022-08-25T01:47:12.222Z,16.65
2022-08-25T01:49:39.110Z,16.69
2022-08-25T01:52:16.237Z,16.68
2022-08-25T01:54:43.179Z,16.66
2022-08-25T01:57:10.262Z,16.64
2022-08-25T01:59:37.298Z,16.63
2022-08-25T02:02:05.517Z,16.59
2022-08-25T02:04:33.048Z,16.56
2022-08-25T02:07:03.548Z,16.52
2022-08-25T02:09:30.362Z,16.48
2022-08-25T02:11:57.590Z,16.46
2022-08-25T02:14:24.626Z,16.48
2022-08-25T02:16:53.529Z,16.46
2022-08-25T02:19:22.397Z,16.39
2022-08-25T02:21:49.403Z,16.30
2022-08-25T02:24:16.863Z,16.20
2022-08-25T02:26:43.836Z,16.13
2022-08-25T02:29:11.195Z,16.02
2022-08-25T02:31:39.247Z,15.94
2022-08-25T02:34:08.251Z,15.88
2022-08-25T02:36:35.389Z,15.83
2022-08-25T02:39:04.149Z,15.84
2022-08-25T02:41:31.774Z,15.84
2022-08-25T02:44:02.654Z,15.87
2022-08-25T02:46:29.848Z,15.82
2022-08-25T02:48:57.162Z,15.77
2022-08-25T02:51:25.579Z,15.77
2022-08-25T02:53:52.429Z,15.77
2022-08-25T02:56:19.509Z,15.76
2022-08-25T02:58:47.210Z,15.79
2022-08-25T03:01:14.558Z,15.80
2022-08-25T03:03:45.997Z,15.75
2022-08-25T03:06:18.925Z,15.71
2022-08-25T03:08:45.720Z,15.69
2022-08-25T03:11:13.036Z,15.66
2022-08-25T03:13:40.584Z,15.70
2022-08-25T03:16:10.932Z,15.78
2022-08-25T03:18:40.317Z,15.89
2022-08-25T03:21:07.636Z,16.01
2022-08-25T03:23:35.118Z,16.17
2022-08-25T03:26:20.914Z,16.35
2022-08-25T03:28:47.860Z,16.57
2022-08-25T03:31:14.762Z,16.81
2022-08-25T03:33:42.031Z,17.02
2022-08-25T03:36:12.088Z,17.28
2022-08-25T03:38:39.944Z,17.52
2022-08-25T03:41:18.381Z,17.83
2022-08-25T03:43:45.146Z,18.15
2022-08-25T03:46:25.254Z,18.48
2022-08-25T03:48:52.426Z,18.78
2022-08-25T03:51:29.759Z,19.12
2022-08-25T03:53:57.080Z,19.48
2022-08-25T03:56:24.026Z,19.79
2022-08-25T03:58:51.411Z,20.06
2022-08-25T04:01:18.397Z,20.36
2022-08-25T04:03:45.691Z,20.69
2022-08-25T04:06:13.342Z,21.00
2022-08-25T04:08:40.420Z,21.24
2022-08-25T04:11:13.282Z,21.57
2022-08-25T04:13:42.419Z,21.80
2022-08-25T04:16:31.261Z,22.19
2022-08-25T04:19:00.633Z,22.47
2022-08-25T04:21:27.608Z,22.70
2022-08-25T04:23:55.976Z,22.83
2022-08-25T04:26:27.157Z,22.95
2022-08-25T04:28:56.543Z,23.03
2022-08-25T04:31:23.568Z,23.19
2022-08-25T04:33:50.635Z,23.37
2022-08-25T04:36:19.226Z,23.69
2022-08-25T04:38:47.231Z,23.99
2022-08-25T04:41:16.653Z,24.47
2022-08-25T04:43:44.867Z,24.88
2022-08-25T04:46:28.281Z,25.27
2022-08-25T04:48:57.181Z,25.57
2022-08-25T04:51:28.493Z,26.07
2022-08-25T04:53:58.213Z,26.33
2022-08-25T04:56:25.251Z,26.72
2022-08-25T04:58:53.530Z,26.98
2022-08-25T05:01:23.501Z,26.96
2022-08-25T05:03:59.581Z,27.06
2022-08-25T05:06:27.803Z,27.37
2022-08-25T05:08:56.041Z,27.50
2022-08-25T05:11:24.390Z,27.40
2022-08-25T05:13:54.888Z,27.43
2022-08-25T05:16:23.607Z,27.84
2022-08-25T05:18:51.616Z,28.06
2022-08-25T05:21:22.446Z,28.16
2022-08-25T05:23:49.880Z,28.33
2022-08-25T05:26:21.145Z,28.47
2022-08-25T05:28:51.143Z,28.43
2022-08-25T05:31:19.197Z,28.85
2022-08-25T05:33:46.071Z,28.82
2022-08-25T05:36:14.738Z,29.15
2022-08-25T05:38:42.204Z,29.14
2022-08-25T05:41:11.981Z,29.23
2022-08-25T05:43:40.852Z,29.54
2022-08-25T05:46:08.511Z,29.86
2022-08-25T05:48:35.903Z,30.12
2022-08-25T05:51:05.178Z,29.90
2022-08-25T05:53:34.045Z,30.17
2022-08-25T05:56:01.799Z,30.63
2022-08-25T05:58:30.070Z,30.82
2022-08-25T06:01:18.680Z,30.80
2022-08-25T06:03:47.772Z,30.79
2022-08-25T06:06:16.284Z,30.20
2022-08-25T06:08:45.029Z,29.62
2022-08-25T06:11:13.787Z,29.56
2022-08-25T06:13:41.058Z,29.90
2022-08-25T06:16:08.501Z,30.74
2022-08-25T06:18:35.551Z,30.97
2022-08-25T06:21:14.248Z,30.76
2022-08-25T06:23:41.363Z,31.04
2022-08-25T06:26:14.321Z,31.06
2022-08-25T06:28:52.354Z,31.42
2022-08-25T06:31:22.487Z,31.79
2022-08-25T06:33:50.841Z,32.70
2022-08-25T06:36:19.484Z,33.77
2022-08-25T06:38:47.593Z,34.56
2022-08-25T06:41:14.973Z,35.26
2022-08-25T06:43:47.985Z,35.81
2022-08-25T06:46:22.765Z,35.78
2022-08-25T06:49:03.537Z,35.68
2022-08-25T06:51:30.670Z,35.02
2022-08-25T06:53:57.569Z,35.35
2022-08-25T06:56:24.555Z,35.01
2022-08-25T06:58:53.621Z,35.23
2022-08-25T07:01:26.206Z,35.62
2022-08-25T07:03:57.851Z,35.65
2022-08-25T07:06:27.185Z,35.58
2022-08-25T07:08:54.556Z,35.38
2022-08-25T07:11:21.677Z,35.96
2022-08-25T07:13:50.097Z,36.53
2022-08-25T07:16:18.743Z,36.78
2022-08-25T07:18:46.189Z,37.37
2022-08-25T07:21:14.549Z,37.34
2022-08-25T07:23:42.068Z,37.47
2022-08-25T07:26:27.123Z,38.11
2022-08-25T07:29:00.229Z,38.39
2022-08-25T07:31:29.726Z,38.76
2022-08-25T07:34:16.663Z,39.32
2022-08-25T07:36:45.018Z,39.95
2022-08-25T07:39:12.258Z,40.42
2022-08-25T07:41:41.650Z,40.71
2022-08-25T07:44:11.048Z,40.76
2022-08-25T07:46:38.378Z,41.01
2022-08-25T07:49:12.603Z,41.29
2022-08-25T07:52:05.328Z,41.89
2022-08-25T07:54:34.544Z,42.14
2022-08-25T07:57:03.784Z,42.42
2022-08-25T07:59:39.329Z,42.32
2022-08-25T08:02:18.199Z,42.61
2022-08-25T08:04:51.253Z,42.81
2022-08-25T08:07:36.976Z,42.66
2022-08-25T08:13:00.452Z,42.94
2022-08-25T08:15:29.923Z,43.23
2022-08-25T08:17:59.200Z,43.38
2022-08-25T08:20:27.200Z,43.78
2022-08-25T08:22:54.549Z,43.91
2022-08-25T08:25:26.670Z,44.31
2022-08-25T08:27:56.071Z,44.07
2022-08-25T08:30:25.839Z,44.11
2022-08-25T08:33:11.801Z,44.55
2022-08-25T08:35:40.445Z,44.33
2022-08-25T08:38:14.760Z,44.56
2022-08-25T08:41:23.022Z,44.53
2022-08-25T08:43:59.480Z,44.78
2022-08-25T08:46:38.487Z,44.84
2022-08-25T08:49:23.089Z,44.99
2022-08-25T08:52:01.057Z,45.11
2022-08-25T08:54:35.159Z,45.30
2022-08-25T08:57:09.973Z,45.28
2022-08-25T08:59:50.395Z,45.70
2022-08-25T09:02:38.615Z,45.50
2022-08-25T09:05:20.150Z,45.19
2022-08-25T09:07:56.107Z,45.18
2022-08-25T09:10:26.928Z,45.30
2022-08-25T09:13:17.984Z,45.72
2022-08-25T09:16:08.776Z,45.77
2022-08-25T09:18:50.963Z,46.21
2022-08-25T09:21:27.244Z,46.28
2022-08-25T09:24:14.053Z,46.02
2022-08-25T09:26:51.245Z,46.21
2022-08-25T09:29:27.241Z,46.25
2022-08-25T09:31:58.859Z,46.45
2022-08-25T09:34:32.781Z,46.42
2022-08-25T09:37:00.923Z,46.08
2022-08-25T09:39:32.054Z,45.98
2022-08-25T09:42:02.192Z,46.29
2022-08-25T09:44:44.201Z,46.50
2022-08-25T09:47:20.057Z,46.64
2022-08-25T09:50:06.965Z,46.85
2022-08-25T09:52:37.500Z,46.78
2022-08-25T09:55:14.669Z,46.73
2022-08-25T09:57:52.722Z,46.56
2022-08-25T10:00:25.405Z,46.72
2022-08-25T10:03:25.187Z,46.31
2022-08-25T10:05:56.371Z,46.41
2022-08-25T10:08:52.903Z,46.63
2022-08-25T10:11:43.662Z,47.16
2022-08-25T10:14:25.511Z,47.39
2022-08-25T10:16:54.757Z,47.23
2022-08-25T10:19:21.676Z,47.50
2022-08-25T10:22:05.631Z,47.37
2022-08-25T10:24:43.914Z,47.56
2022-08-25T10:27:33.745Z,47.64
2022-08-25T10:30:20.492Z,47.70
2022-08-25T10:33:05.874Z,47.79
2022-08-25T10:36:11.785Z,48.08
2022-08-25T10:38:43.086Z,48.13
2022-08-25T10:41:31.514Z,48.20
2022-08-25T10:44:00.868Z,48.02
2022-08-25T10:47:14.063Z,47.95
2022-08-25T10:49:55.923Z,47.71
2022-08-25T10:52:36.692Z,47.86
2022-08-25T10:55:17.849Z,47.95
2022-08-25T10:57:59.875Z,47.39
2022-08-25T11:00:53.834Z,47.39
2022-08-25T11:03:20.802Z,47.54
2022-08-25T11:05:56.057Z,47.38
2022-08-25T11:08:37.113Z,47.27
2022-08-25T11:11:37.733Z,47.63
2022-08-25T11:15:01.578Z,47.61
2022-08-25T11:17:53.842Z,47.83
2022-08-25T11:20:35.294Z,48.29
2022-08-25T11:27:49.097Z,48.53
2022-08-25T11:30:41.711Z,48.56
2022-08-25T11:33:13.612Z,48.64
2022-08-25T11:35:51.319Z,48.47
2022-08-25T11:38:49.058Z,48.74
2022-08-25T11:41:34.152Z,46.77
2022-08-25T11:44:29.205Z,45.66
2022-08-25T11:47:15.737Z,45.23
2022-08-25T11:49:59.930Z,44.47
2022-08-25T11:52:32.773Z,43.62
2022-08-25T11:55:22.749Z,42.79
2022-08-25T11:57:53.954Z,42.83
2022-08-25T12:00:20.952Z,43.20
2022-08-25T12:02:51.301Z,42.93
2022-08-25T12:05:26.403Z,43.50
2022-08-25T12:08:11.901Z,43.93
2022-08-25T12:11:07.199Z,44.47
2022-08-25T12:13:50.982Z,44.83
2022-08-25T12:16:40.967Z,44.64
2022-08-25T12:19:35.623Z,44.07
2022-08-25T12:22:04.650Z,42.74
2022-08-25T12:24:47.629Z,42.32
2022-08-25T12:27:45.521Z,42.43
2022-08-25T12:30:21.529Z,42.24
2022-08-25T12:32:57.413Z,41.89
2022-08-25T12:35:31.368Z,42.00
2022-08-25T12:38:20.028Z,42.36
2022-08-25T12:40:46.821Z,42.73
2022-08-25T12:43:24.896Z,43.18
2022-08-25T12:45:57.498Z,43.32
2022-08-25T12:48:27.433Z,43.81
2022-08-25T12:51:08.788Z,44.18
2022-08-25T12:53:46.298Z,44.61
2022-08-25T12:56:25.117Z,45.02
2022-08-25T12:59:00.407Z,45.32
2022-08-25T13:01:53.098Z,45.61
2022-08-25T13:04:41.665Z,45.81
2022-08-25T13:07:14.534Z,45.86
2022-08-25T13:10:06.030Z,45.52
2022-08-25T13:12:55.925Z,44.94
2022-08-25T13:16:06.578Z,44.35
2022-08-25T13:18:36.152Z,43.94
2022-08-25T13:21:09.367Z,42.30
2022-08-25T13:23:42.050Z,41.37
2022-08-25T13:26:15.165Z,39.73
2022-08-25T13:28:50.443Z,38.87
2022-08-25T13:31:28.361Z,38.24
2022-08-25T13:34:06.208Z,37.41
2022-08-25T13:37:05.886Z,36.90
2022-08-25T13:39:55.473Z,36.86
2022-08-25T13:42:29.031Z,37.21
2022-08-25T13:44:56.990Z,37.36
2022-08-25T13:47:49.126Z,37.74
2022-08-25T13:50:26.353Z,37.95
2022-08-25T13:53:00.754Z,37.95
2022-08-25T13:55:52.165Z,38.11
2022-08-25T13:58:39.113Z,38.48
2022-08-25T14:01:22.214Z,38.69
2022-08-25T14:04:33.914Z,38.97
2022-08-25T14:07:34.366Z,39.06
2022-08-25T14:10:23.941Z,39.28
2022-08-25T14:13:13.108Z,39.21
2022-08-25T14:15:44.196Z,39.34
2022-08-25T14:18:19.351Z,39.23
2022-08-25T14:20:50.797Z,39.14
2022-08-25T14:23:25.702Z,39.05
2022-08-25T14:25:54.576Z,38.96
2022-08-25T14:28:25.453Z,38.82
2022-08-25T14:31:08.409Z,38.97
2022-08-25T14:33:57.795Z,38.88
2022-08-25T14:36:26.576Z,38.68
2022-08-25T14:38:57.236Z,38.30
2022-08-25T14:41:26.590Z,37.92
2022-08-25T14:43:53.948Z,37.30
2022-08-25T14:46:26.955Z,36.75
2022-08-25T14:49:01.309Z,36.03
2022-08-25T14:51:32.619Z,35.32
2022-08-25T14:54:03.831Z,34.69
2022-08-25T14:56:32.391Z,34.10
2022-08-25T14:59:00.363Z,33.61
2022-08-25T15:01:30.259Z,33.13
2022-08-25T15:04:15.783Z,32.64
2022-08-25T15:06:45.091Z,32.28
2022-08-25T15:09:16.349Z,32.00
2022-08-25T15:11:48.382Z,31.80
2022-08-25T15:14:28.634Z,31.64
2022-08-25T15:17:01.749Z,31.47
2022-08-25T15:19:29.274Z,31.27
2022-08-25T15:21:58.138Z,31.22
2022-08-25T15:24:27.988Z,31.13
2022-08-25T15:27:00.663Z,31.03
2022-08-25T15:29:31.018Z,30.92
2022-08-25T15:32:00.225Z,30.85
2022-08-25T15:34:28.035Z,30.78
2022-08-25T15:36:56.372Z,30.65
2022-08-25T15:39:23.332Z,30.61
2022-08-25T15:41:52.556Z,30.55
2022-08-25T15:44:22.208Z,30.46
2022-08-25T15:46:50.996Z,30.38
2022-08-25T15:49:20.598Z,30.27
2022-08-25T15:51:52.522Z,30.19
2022-08-25T15:54:20.799Z,30.10
2022-08-25T15:56:48.054Z,29.99
2022-08-25T15:59:16.062Z,29.88
2022-08-25T16:01:46.548Z,29.76
2022-08-25T16:04:14.647Z,29.64
2022-08-25T16:06:41.828Z,29.51
2022-08-25T16:09:08.768Z,29.39
2022-08-25T16:11:35.794Z,29.23
2022-08-25T16:14:06.111Z,29.08
2022-08-25T16:16:33.113Z,28.93
2022-08-25T16:19:00.388Z,28.78
2022-08-25T16:21:35.077Z,28.61
2022-08-25T16:24:07.538Z,28.44
2022-08-25T16:26:36.584Z,28.27
2022-08-25T16:29:07.178Z,28.11
2022-08-25T16:31:34.109Z,27.93
2022-08-25T16:34:01.603Z,27.78
2022-08-25T16:36:29.163Z,27.61
2022-08-25T16:38:57.813Z,27.46
2022-08-25T16:41:34.086Z,27.29
2022-08-25T16:44:02.915Z,27.15
2022-08-25T16:46:31.319Z,27.03
2022-08-25T16:49:03.305Z,26.89
2022-08-25T16:51:32.526Z,26.75
2022-08-25T16:54:22.127Z,26.61
2022-08-25T16:56:50.768Z,26.45
2022-08-25T16:59:22.242Z,26.36
2022-08-25T17:01:51.308Z,26.23
2022-08-25T17:04:18.372Z,26.08
2022-08-25T17:06:49.628Z,25.90
2022-08-25T17:09:23.888Z,25.77
2022-08-25T17:11:54.212Z,25.70
2022-08-25T17:14:22.006Z,25.62
2022-08-25T17:16:51.261Z,25.53
2022-08-25T17:19:18.755Z,25.46
2022-08-25T17:21:49.893Z,25.44
2022-08-25T17:24:17.274Z,25.33
2022-08-25T17:26:47.256Z,25.27
2022-08-25T17:29:14.179Z,25.23
2022-08-25T17:31:43.990Z,25.14
2022-08-25T17:34:16.418Z,25.14
2022-08-25T17:36:43.995Z,25.05
2022-08-25T17:39:14.095Z,24.99
2022-08-25T17:41:44.006Z,24.89
2022-08-25T17:44:11.979Z,24.75
2022-08-25T17:46:44.160Z,24.58
2022-08-25T17:49:15.486Z,24.39
2022-08-25T17:51:42.645Z,24.25
2022-08-25T17:54:09.715Z,24.13
2022-08-25T17:56:38.005Z,24.00
2022-08-25T17:59:05.045Z,23.87
2022-08-25T18:01:40.229Z,23.74
2022-08-25T18:04:17.461Z,23.63
2022-08-25T18:06:48.451Z,23.57
2022-08-25T18:09:17.362Z,23.54
2022-08-25T18:11:44.944Z,23.58
2022-08-25T18:14:13.960Z,23.63
2022-08-25T18:16:40.952Z,23.67
2022-08-25T18:19:10.997Z,23.67
2022-08-25T18:21:38.892Z,23.71
2022-08-25T18:24:07.237Z,23.72
2022-08-25T18:26:35.504Z,23.73
2022-08-25T18:29:02.654Z,23.73
2022-08-25T18:31:29.738Z,23.71
2022-08-25T18:33:57.403Z,23.70
2022-08-25T18:36:24.293Z,23.68
2022-08-25T18:39:13.766Z,23.64
2022-08-25T18:41:42.661Z,23.54
2022-08-25T18:44:12.370Z,23.43
2022-08-25T18:46:42.616Z,23.35
2022-08-25T18:49:09.729Z,23.24
2022-08-25T18:51:37.616Z,23.12
2022-08-25T18:54:05.137Z,22.98
2022-08-25T18:56:33.498Z,22.89
2022-08-25T18:59:00.527Z,22.79
2022-08-25T19:01:27.497Z,22.70
2022-08-25T19:03:56.707Z,22.61
2022-08-25T19:06:23.734Z,22.54
2022-08-25T19:08:50.666Z,22.48
2022-08-25T19:11:22.098Z,22.40
2022-08-25T19:13:50.337Z,22.30
2022-08-25T19:16:36.027Z,22.23
2022-08-25T19:19:04.553Z,22.18
2022-08-25T19:21:35.108Z,22.14
2022-08-25T19:24:03.074Z,22.12
2022-08-25T19:26:31.704Z,22.07
2022-08-25T19:28:58.962Z,22.00
2022-08-25T19:31:27.174Z,21.96
2022-08-25T19:33:56.336Z,21.94
2022-08-25T19:36:28.096Z,21.91
2022-08-25T19:38:58.338Z,21.87
2022-08-25T19:41:27.609Z,21.81
2022-08-25T19:43:57.463Z,21.79
2022-08-25T19:46:33.393Z,21.78
2022-08-25T19:49:08.169Z,21.75
2022-08-25T19:51:40.388Z,21.73
2022-08-25T19:54:09.020Z,21.71
2022-08-25T19:56:43.662Z,21.67
2022-08-25T19:59:26.800Z,21.62
2022-08-25T20:02:09.741Z,21.55
2022-08-25T20:04:37.724Z,21.47
2022-08-25T20:07:04.832Z,21.46
2022-08-25T20:09:39.616Z,21.38
2022-08-25T20:12:10.682Z,21.33
2022-08-25T20:14:38.090Z,21.28
2022-08-25T20:17:14.378Z,21.27
2022-08-25T20:19:51.179Z,21.27
2022-08-25T20:22:19.217Z,21.25
2022-08-25T20:24:51.042Z,21.23
2022-08-25T20:27:28.006Z,21.18
2022-08-25T20:29:54.824Z,21.13
2022-08-25T20:32:22.686Z,21.09
2022-08-25T20:34:50.512Z,21.05
2022-08-25T20:37:18.490Z,21.01
2022-08-25T20:39:46.393Z,20.98
2022-08-25T20:42:13.827Z,20.94
2022-08-25T20:44:42.258Z,20.90
2022-08-25T20:47:10.632Z,20.85
2022-08-25T20:49:39.565Z,20.81
2022-08-25T20:52:07.585Z,20.75
2022-08-25T20:54:34.805Z,20.70
2022-08-25T20:57:02.596Z,20.64
2022-08-25T20:59:29.922Z,20.59
2022-08-25T21:01:57.027Z,20.55
2022-08-25T21:04:28.341Z,20.53
2022-08-25T21:06:56.185Z,20.48
2022-08-25T21:09:24.507Z,20.39
2022-08-25T21:11:53.591Z,20.36
2022-08-25T21:14:22.115Z,20.31
2022-08-25T21:16:49.661Z,20.23
2022-08-25T21:19:26.851Z,20.15
2022-08-25T21:21:59.918Z,20.04
2022-08-25T21:24:28.387Z,19.90
2022-08-25T21:26:57.139Z,19.76
2022-08-25T21:29:28.618Z,19.64
2022-08-25T21:31:57.847Z,19.55
2022-08-25T21:34:24.910Z,19.50
2022-08-25T21:36:57.748Z,19.46
2022-08-25T21:39:27.530Z,19.40
2022-08-25T21:41:56.678Z,19.38
2022-08-25T21:44:23.586Z,19.36
2022-08-25T21:46:54.376Z,19.37
2022-08-25T21:49:23.159Z,19.39
2022-08-25T21:52:03.366Z,19.37
2022-08-25T21:54:31.710Z,19.31
2022-08-25T21:57:05.111Z,19.22
2022-08-25T21:59:40.273Z,19.17
2022-08-25T22:02:10.047Z,19.14
2022-08-25T22:04:39.446Z,19.14
2022-08-25T22:07:07.665Z,19.18
2022-08-25T22:09:35.618Z,19.22
2022-08-25T22:12:03.018Z,19.24
2022-08-25T22:14:29.897Z,19.30
2022-08-25T22:16:57.078Z,19.34
2022-08-25T22:19:24.601Z,19.38
2022-08-25T22:21:52.924Z,19.41
2022-08-25T22:24:20.693Z,19.42
2022-08-25T22:26:49.070Z,19.40
2022-08-25T22:29:25.572Z,19.36
2022-08-25T22:31:59.914Z,19.29
2022-08-25T22:34:32.055Z,19.21
2022-08-25T22:37:04.017Z,19.11
2022-08-25T22:39:32.473Z,19.11
2022-08-25T22:42:01.933Z,19.11
2022-08-25T22:44:28.960Z,19.11
2022-08-25T22:46:55.827Z,19.09
2022-08-25T22:49:23.386Z,19.05
2022-08-25T22:51:50.269Z,19.05
2022-08-25T22:54:18.187Z,19.06
2022-08-25T22:56:44.969Z,19.07
2022-08-25T22:59:13.700Z,19.07
2022-08-25T23:01:42.741Z,19.05
2022-08-25T23:04:10.766Z,19.07
2022-08-25T23:06:38.312Z,19.10
2022-08-25T23:09:07.321Z,19.10
2022-08-25T23:11:35.898Z,19.07
2022-08-25T23:14:08.346Z,19.05
2022-08-25T23:16:35.245Z,19.04
2022-08-25T23:19:02.249Z,19.03
2022-08-25T23:21:48.359Z,19.07
2022-08-25T23:24:29.760Z,19.07
2022-08-25T23:27:01.970Z,19.07
2022-08-25T23:29:30.357Z,19.09
2022-08-25T23:31:58.576Z,19.07
2022-08-25T23:34:26.245Z,19.12
2022-08-25T23:36:53.329Z,19.11
2022-08-25T23:39:21.753Z,19.11
2022-08-25T23:41:50.031Z,19.10
2022-08-25T23:44:17.822Z,19.10
2022-08-25T23:46:47.565Z,19.07
2022-08-25T23:49:18.076Z,19.06
2022-08-25T23:51:47.619Z,19.05
2022-08-25T23:54:15.828Z,19.03
2022-08-25T23:56:51.286Z,19.00
2022-08-25T23:59:24.595Z,18.97
